Terminal Aerodrome Forecast
Issued by NWS

Home | Current Version | Previous Version | Text Only | Print | Product List | Glossary On
Versions: 1 2 3 4 5 6 7 8 9 10 11 12
000
FTUS46 KLOX 281127
TAFPRB
TAF
KPRB 281127Z 2812/2912 VRB03KT P6SM SKC
     FM282200 21012KT P6SM SKC
     FM290100 30012KT P6SM SKC
     FM290700 VRB03KT P6SM SKC=

USA.gov is the U.S. government's official web portal to all federal, state and local government web resources and services.